createdAt,value
2023-03-14T00:00:12.849Z,51.41
2023-03-14T00:02:40.441Z,50.46
2023-03-14T00:05:07.966Z,50.85
2023-03-14T00:07:36.269Z,50.45
2023-03-14T00:10:05.368Z,50.27
2023-03-14T00:12:33.063Z,50.26
2023-03-14T00:15:01.214Z,50.29
2023-03-14T00:17:28.723Z,51.32
2023-03-14T00:19:55.879Z,51.67
2023-03-14T00:22:23.074Z,52.10
2023-03-14T00:24:50.476Z,52.23
2023-03-14T00:27:17.622Z,52.66
2023-03-14T00:29:46.035Z,52.14
2023-03-14T00:32:13.669Z,51.72
2023-03-14T00:34:41.054Z,51.84
2023-03-14T00:37:08.193Z,52.23
2023-03-14T00:39:35.662Z,52.49
2023-03-14T00:42:02.873Z,51.82
2023-03-14T00:44:30.041Z,51.38
2023-03-14T00:46:58.137Z,53.09
2023-03-14T00:49:26.721Z,53.43
2023-03-14T00:51:53.916Z,53.26
2023-03-14T00:54:21.423Z,53.06
2023-03-14T00:56:48.704Z,53.01
2023-03-14T00:59:16.353Z,53.01
2023-03-14T01:01:43.879Z,53.10
2023-03-14T01:04:11.347Z,53.75
2023-03-14T01:06:38.717Z,51.93
2023-03-14T01:09:06.173Z,53.38
2023-03-14T01:11:34.649Z,52.45
2023-03-14T01:14:02.055Z,51.64
2023-03-14T01:16:31.750Z,52.56
2023-03-14T01:19:01.474Z,52.54
2023-03-14T01:21:29.930Z,52.97
2023-03-14T01:23:58.228Z,53.39
2023-03-14T01:26:26.034Z,53.12
2023-03-14T01:28:54.024Z,52.68
2023-03-14T01:31:22.270Z,53.74
2023-03-14T01:33:49.485Z,54.43
2023-03-14T01:36:16.930Z,54.75
2023-03-14T01:38:44.447Z,54.11
2023-03-14T01:41:22.569Z,54.21
2023-03-14T01:43:51.167Z,53.93
2023-03-14T01:46:18.564Z,53.70
2023-03-14T01:49:04.476Z,54.79
2023-03-14T01:51:35.486Z,53.96
2023-03-14T01:54:07.393Z,54.17
2023-03-14T01:56:35.006Z,55.18
2023-03-14T01:59:02.753Z,55.05
2023-03-14T02:01:29.928Z,54.75
2023-03-14T02:03:57.828Z,54.50
2023-03-14T02:06:27.153Z,54.43
2023-03-14T02:08:56.901Z,54.79
2023-03-14T02:11:25.702Z,54.49
2023-03-14T02:13:54.025Z,55.11
2023-03-14T02:16:22.298Z,55.03
2023-03-14T02:18:50.354Z,54.75
2023-03-14T02:21:23.552Z,54.49
2023-03-14T02:23:57.542Z,55.48
2023-03-14T02:26:28.113Z,56.68
2023-03-14T02:28:55.581Z,56.90
2023-03-14T02:31:22.871Z,56.14
2023-03-14T02:33:50.612Z,56.64
2023-03-14T02:36:17.788Z,56.40
2023-03-14T02:38:44.959Z,56.20
2023-03-14T02:41:12.387Z,57.07
2023-03-14T02:43:40.222Z,57.05
2023-03-14T02:46:10.253Z,57.07
2023-03-14T02:48:41.413Z,55.82
2023-03-14T02:51:10.993Z,56.42
2023-03-14T02:53:38.970Z,56.21
2023-03-14T02:56:06.733Z,56.21
2023-03-14T02:58:34.141Z,56.99
2023-03-14T03:01:02.168Z,56.17
2023-03-14T03:03:29.883Z,56.24
2023-03-14T03:05:57.412Z,56.05
2023-03-14T03:08:26.799Z,56.89
2023-03-14T03:10:54.530Z,57.23
2023-03-14T03:13:21.779Z,57.48
2023-03-14T03:15:50.063Z,56.90
2023-03-14T03:18:17.271Z,58.17
2023-03-14T03:20:44.462Z,57.96
2023-03-14T03:23:11.937Z,56.84
2023-03-14T03:25:39.269Z,57.88
2023-03-14T03:28:09.036Z,57.50
2023-03-14T03:30:40.493Z,58.07
2023-03-14T03:33:07.961Z,59.06
2023-03-14T03:35:35.328Z,58.15
2023-03-14T03:38:02.866Z,58.75
2023-03-14T03:40:30.199Z,58.53
2023-03-14T03:42:57.565Z,58.41
2023-03-14T03:45:25.169Z,58.57
2023-03-14T03:47:52.600Z,57.67
2023-03-14T03:50:19.738Z,57.85
2023-03-14T03:52:47.191Z,57.79
2023-03-14T03:55:14.347Z,55.65
2023-03-14T03:57:41.525Z,56.48
2023-03-14T04:00:12.494Z,55.78
2023-03-14T04:02:41.414Z,56.49
2023-03-14T04:05:10.119Z,56.24
2023-03-14T04:07:37.878Z,56.81
2023-03-14T04:10:05.993Z,56.44
2023-03-14T04:12:33.805Z,55.67
2023-03-14T04:15:01.719Z,55.28
2023-03-14T04:17:29.310Z,57.00
2023-03-14T04:19:56.798Z,57.11
2023-03-14T04:22:25.158Z,57.59
2023-03-14T04:24:52.842Z,58.04
2023-03-14T04:27:20.540Z,56.87
2023-03-14T04:29:48.342Z,56.22
2023-03-14T04:32:15.806Z,55.98
2023-03-14T04:34:43.757Z,56.41
2023-03-14T04:37:11.517Z,56.09
2023-03-14T04:39:40.187Z,56.07
2023-03-14T04:42:07.918Z,55.64
2023-03-14T04:44:37.286Z,56.91
2023-03-14T04:47:04.620Z,56.85
2023-03-14T04:49:32.376Z,56.69
2023-03-14T04:52:00.267Z,58.19
2023-03-14T04:54:28.532Z,57.92
2023-03-14T04:56:56.700Z,57.93
2023-03-14T04:59:24.700Z,58.90
2023-03-14T05:01:52.911Z,58.63
2023-03-14T05:04:20.435Z,58.00
2023-03-14T05:06:48.196Z,57.80
2023-03-14T05:09:16.405Z,56.63
2023-03-14T05:11:44.834Z,57.18
2023-03-14T05:14:12.592Z,56.24
2023-03-14T05:16:40.662Z,56.83
2023-03-14T05:19:08.896Z,57.08
2023-03-14T05:21:36.665Z,57.65
2023-03-14T05:24:04.370Z,56.75
2023-03-14T05:26:32.185Z,57.47
2023-03-14T05:28:59.620Z,56.87
2023-03-14T05:31:27.610Z,56.21
2023-03-14T05:33:55.316Z,55.18
2023-03-14T05:36:23.298Z,54.59
2023-03-14T05:38:51.604Z,56.45
2023-03-14T05:41:19.730Z,55.49
2023-03-14T05:43:47.496Z,55.41
2023-03-14T05:46:15.396Z,56.40
2023-03-14T05:48:43.415Z,56.25
2023-03-14T05:51:10.834Z,56.63
2023-03-14T05:53:38.290Z,55.91
2023-03-14T05:56:11.401Z,55.53
2023-03-14T05:58:39.651Z,55.85
2023-03-14T06:01:07.969Z,57.19
2023-03-14T06:03:36.307Z,55.86
2023-03-14T06:06:04.681Z,54.10
2023-03-14T06:08:32.564Z,55.06
2023-03-14T06:11:00.491Z,54.61
2023-03-14T06:13:28.477Z,55.12
2023-03-14T06:15:55.869Z,54.49
2023-03-14T06:18:23.663Z,55.02
2023-03-14T06:20:56.666Z,54.37
2023-03-14T06:23:26.282Z,54.34
2023-03-14T06:25:54.010Z,54.12
2023-03-14T06:28:21.848Z,52.89
2023-03-14T06:30:49.895Z,52.71
2023-03-14T06:33:17.468Z,51.80
2023-03-14T06:35:45.333Z,50.90
2023-03-14T06:38:13.249Z,50.56
2023-03-14T06:40:40.700Z,50.06
2023-03-14T06:43:09.090Z,50.30
2023-03-14T06:45:37.516Z,50.28
2023-03-14T06:48:05.295Z,48.86
2023-03-14T06:50:33.415Z,48.52
2023-03-14T06:53:01.127Z,49.69
2023-03-14T06:55:30.227Z,49.09
2023-03-14T06:57:57.764Z,50.11
2023-03-14T07:00:26.088Z,50.09
2023-03-14T07:02:53.809Z,50.14
2023-03-14T07:05:22.444Z,48.15
2023-03-14T07:07:50.306Z,49.29
2023-03-14T07:10:18.755Z,49.34
2023-03-14T07:12:46.172Z,48.81
2023-03-14T07:15:18.879Z,48.19
2023-03-14T07:17:49.181Z,48.44
2023-03-14T07:20:18.913Z,48.42
2023-03-14T07:22:49.632Z,47.66
2023-03-14T07:25:18.496Z,48.76
2023-03-14T07:27:46.894Z,47.95
2023-03-14T07:30:15.044Z,46.75
2023-03-14T07:32:42.845Z,46.89
2023-03-14T07:35:10.792Z,46.36
2023-03-14T07:37:38.590Z,48.12
2023-03-14T07:40:08.317Z,46.85
2023-03-14T07:42:36.165Z,46.74
2023-03-14T07:45:10.572Z,45.62
2023-03-14T07:47:38.150Z,45.75
2023-03-14T07:50:06.642Z,44.82
2023-03-14T07:52:35.315Z,45.40
2023-03-14T07:55:02.799Z,47.11
2023-03-14T07:57:30.510Z,46.39
2023-03-14T07:59:58.004Z,48.36
2023-03-14T08:02:25.710Z,48.34
2023-03-14T08:04:53.791Z,46.89
2023-03-14T08:07:21.185Z,45.72
2023-03-14T08:09:48.609Z,45.07
2023-03-14T08:12:17.449Z,45.24
2023-03-14T08:14:45.119Z,44.17
2023-03-14T08:17:12.703Z,44.91
2023-03-14T08:19:42.380Z,44.19
2023-03-14T08:22:09.760Z,43.42
2023-03-14T08:24:37.204Z,43.85
2023-03-14T08:27:05.056Z,43.01
2023-03-14T08:29:32.583Z,42.21
2023-03-14T08:32:00.125Z,42.83
2023-03-14T08:34:27.880Z,43.14
2023-03-14T08:36:57.785Z,42.34
2023-03-14T08:39:25.392Z,41.45
2023-03-14T08:41:52.990Z,42.45
2023-03-14T08:44:20.875Z,41.49
2023-03-14T08:46:48.243Z,42.91
2023-03-14T08:49:15.978Z,42.77
2023-03-14T08:51:43.415Z,42.89
2023-03-14T08:54:11.398Z,41.35
2023-03-14T08:56:39.240Z,41.95
2023-03-14T08:59:06.569Z,40.89
2023-03-14T09:01:33.947Z,41.46
2023-03-14T09:04:01.536Z,40.11
2023-03-14T09:06:34.459Z,40.72
2023-03-14T09:09:02.292Z,40.28
2023-03-14T09:11:29.717Z,39.47
2023-03-14T09:13:57.134Z,40.46
2023-03-14T09:16:25.030Z,40.52
2023-03-14T09:19:00.621Z,39.50
2023-03-14T09:21:28.522Z,38.67
2023-03-14T09:23:55.977Z,38.60
2023-03-14T09:26:23.346Z,38.67
2023-03-14T09:28:51.047Z,37.86
2023-03-14T09:31:18.641Z,38.67
2023-03-14T09:33:46.187Z,38.21
2023-03-14T09:36:13.916Z,36.04
2023-03-14T09:38:41.613Z,36.83
2023-03-14T09:41:16.653Z,37.46
2023-03-14T09:43:46.605Z,37.65
2023-03-14T09:46:15.758Z,37.55
2023-03-14T09:48:44.457Z,37.74
2023-03-14T09:51:15.625Z,37.66
2023-03-14T09:53:45.670Z,36.69
2023-03-14T09:56:32.159Z,37.44
2023-03-14T09:59:01.521Z,36.31
2023-03-14T10:01:32.782Z,35.92
2023-03-14T10:04:05.645Z,35.79
2023-03-14T10:06:33.278Z,35.34
2023-03-14T10:09:02.002Z,34.55
2023-03-14T10:11:29.738Z,34.72
2023-03-14T10:14:09.357Z,35.36
2023-03-14T10:16:41.718Z,35.03
2023-03-14T10:19:14.598Z,34.36
2023-03-14T10:21:53.919Z,34.40
2023-03-14T10:24:33.376Z,33.93
2023-03-14T10:27:03.368Z,33.64
2023-03-14T10:29:32.851Z,33.91
2023-03-14T10:32:06.102Z,34.58
2023-03-14T10:34:36.232Z,34.29
2023-03-14T10:37:19.476Z,34.56
2023-03-14T10:39:49.537Z,35.28
2023-03-14T10:42:34.989Z,34.87
2023-03-14T10:45:11.052Z,34.16
2023-03-14T10:47:50.163Z,35.10
2023-03-14T10:50:25.517Z,35.02
2023-03-14T10:53:03.053Z,35.30
2023-03-14T10:55:40.828Z,34.30
2023-03-14T10:58:40.554Z,34.03
2023-03-14T11:01:27.132Z,33.23
2023-03-14T11:04:02.206Z,34.26
2023-03-14T11:06:54.396Z,33.85
2023-03-14T11:09:48.185Z,34.54
2023-03-14T11:12:47.202Z,34.45
2023-03-14T11:15:38.036Z,34.49
2023-03-14T11:18:21.009Z,34.12
2023-03-14T11:20:57.062Z,33.79
2023-03-14T11:23:30.660Z,34.30
2023-03-14T11:25:58.602Z,33.90
2023-03-14T11:28:39.554Z,34.58
2023-03-14T11:31:28.222Z,33.51
2023-03-14T11:34:03.212Z,34.04
2023-03-14T11:36:40.708Z,34.48
2023-03-14T11:39:17.840Z,34.53
2023-03-14T11:41:49.982Z,34.98
2023-03-14T11:44:25.172Z,34.91
2023-03-14T11:47:11.200Z,35.18
2023-03-14T11:49:50.913Z,34.40
2023-03-14T11:52:18.048Z,34.19
2023-03-14T11:54:53.326Z,34.90
2023-03-14T11:57:21.363Z,34.61
2023-03-14T11:59:58.177Z,35.23
2023-03-14T12:02:27.654Z,34.49
2023-03-14T12:05:18.187Z,35.03
2023-03-14T12:08:05.112Z,34.53
2023-03-14T12:10:37.612Z,34.07
2023-03-14T12:13:04.885Z,34.40
2023-03-14T12:15:32.098Z,34.71
2023-03-14T12:17:59.900Z,34.27
2023-03-14T12:20:27.234Z,34.58
2023-03-14T12:22:57.953Z,34.82
2023-03-14T12:25:26.746Z,34.57
2023-03-14T12:27:57.083Z,35.55
2023-03-14T12:30:28.486Z,34.92
2023-03-14T12:33:11.373Z,34.63
2023-03-14T12:35:39.630Z,34.21
2023-03-14T12:38:17.442Z,33.75
2023-03-14T12:40:53.733Z,33.70
2023-03-14T12:43:31.414Z,34.01
2023-03-14T12:46:08.216Z,33.83
2023-03-14T12:48:35.811Z,34.18
2023-03-14T12:51:02.944Z,34.60
2023-03-14T12:53:49.725Z,34.78
2023-03-14T12:56:36.087Z,35.68
2023-03-14T12:59:21.923Z,35.04
2023-03-14T13:01:54.357Z,35.80
2023-03-14T13:04:36.920Z,35.93
2023-03-14T13:07:11.461Z,36.60
2023-03-14T13:09:50.978Z,36.23
2023-03-14T13:12:19.063Z,35.96
2023-03-14T13:14:47.109Z,35.94
2023-03-14T13:17:34.153Z,36.24
2023-03-14T13:20:06.796Z,36.52
2023-03-14T13:22:34.612Z,36.56
2023-03-14T13:25:03.945Z,36.63
2023-03-14T13:27:31.718Z,36.34
2023-03-14T13:29:58.890Z,36.37
2023-03-14T13:32:30.110Z,36.48
2023-03-14T13:34:58.006Z,36.29
2023-03-14T13:37:26.185Z,36.21
2023-03-14T13:39:56.341Z,36.06
2023-03-14T13:42:27.440Z,35.41
2023-03-14T13:44:54.895Z,35.50
2023-03-14T13:47:22.687Z,35.51
2023-03-14T13:49:50.066Z,35.90
2023-03-14T13:52:29.227Z,35.41
2023-03-14T13:54:56.818Z,35.74
2023-03-14T13:57:26.561Z,35.42
2023-03-14T14:00:07.325Z,36.03
2023-03-14T14:02:34.605Z,36.04
2023-03-14T14:05:02.146Z,36.64
2023-03-14T14:07:29.374Z,35.15
2023-03-14T14:09:56.608Z,35.14
2023-03-14T14:12:28.300Z,34.64
2023-03-14T14:14:56.998Z,34.50
2023-03-14T14:17:29.057Z,35.04
2023-03-14T14:19:57.454Z,34.73
2023-03-14T14:22:24.897Z,34.94
2023-03-14T14:24:52.957Z,35.22
2023-03-14T14:27:27.672Z,34.38
2023-03-14T14:29:59.906Z,34.32
2023-03-14T14:32:27.177Z,33.75
2023-03-14T14:34:59.798Z,34.35
2023-03-14T14:37:30.853Z,34.77
2023-03-14T14:39:58.934Z,34.32
2023-03-14T14:42:34.984Z,34.13
2023-03-14T14:45:03.456Z,33.52
2023-03-14T14:47:30.884Z,33.69
2023-03-14T14:49:59.853Z,34.12
2023-03-14T14:52:43.880Z,34.66
2023-03-14T14:55:17.952Z,34.08
2023-03-14T14:57:52.973Z,34.17
2023-03-14T15:00:21.565Z,33.93
2023-03-14T15:02:50.285Z,34.14
2023-03-14T15:05:18.296Z,34.34
2023-03-14T15:07:45.667Z,34.56
2023-03-14T15:10:13.910Z,34.84
2023-03-14T15:12:41.179Z,35.08
2023-03-14T15:15:08.739Z,36.10
2023-03-14T15:17:37.241Z,36.49
2023-03-14T15:20:08.038Z,37.55
2023-03-14T15:22:35.701Z,37.71
2023-03-14T15:25:03.016Z,38.17
2023-03-14T15:27:30.207Z,38.43
2023-03-14T15:29:57.671Z,37.97
2023-03-14T15:32:24.879Z,38.08
2023-03-14T15:34:52.411Z,38.19
2023-03-14T15:37:20.062Z,38.02
2023-03-14T15:39:47.239Z,38.43
2023-03-14T15:42:14.446Z,39.46
2023-03-14T15:44:41.885Z,47.31
2023-03-14T15:47:10.052Z,49.28
2023-03-14T15:49:37.612Z,53.35
2023-03-14T15:52:05.398Z,56.26
2023-03-14T15:54:32.627Z,57.84
2023-03-14T15:56:59.819Z,56.97
2023-03-14T15:59:27.378Z,58.80
2023-03-14T16:01:54.665Z,59.78
2023-03-14T16:04:22.153Z,61.27
2023-03-14T16:06:49.374Z,62.56
2023-03-14T16:09:18.870Z,64.25
2023-03-14T16:11:47.352Z,65.82
2023-03-14T16:14:14.804Z,66.10
2023-03-14T16:16:42.060Z,67.21
2023-03-14T16:19:09.660Z,67.34
2023-03-14T16:21:38.947Z,67.55
2023-03-14T16:24:07.144Z,68.37
2023-03-14T16:26:36.718Z,67.26
2023-03-14T16:29:03.931Z,67.08
2023-03-14T16:31:31.221Z,68.26
2023-03-14T16:34:03.851Z,68.37
2023-03-14T16:36:31.046Z,69.31
2023-03-14T16:38:58.495Z,73.59
2023-03-14T16:41:26.047Z,70.39
2023-03-14T16:43:54.570Z,69.83
2023-03-14T16:46:27.313Z,70.90
2023-03-14T16:48:54.931Z,72.05
2023-03-14T16:51:23.321Z,71.63
2023-03-14T16:53:50.862Z,75.03
2023-03-14T16:56:18.274Z,73.62
2023-03-14T16:58:46.496Z,74.87
2023-03-14T17:01:14.724Z,77.87
2023-03-14T17:03:43.540Z,76.36
2023-03-14T17:06:11.731Z,78.52
2023-03-14T17:08:38.967Z,78.61
2023-03-14T17:11:07.033Z,80.49
2023-03-14T17:13:34.675Z,80.74
2023-03-14T17:16:02.762Z,83.90
2023-03-14T17:18:31.212Z,78.69
2023-03-14T17:21:07.003Z,81.84
2023-03-14T17:23:36.556Z,84.35
2023-03-14T17:26:05.519Z,84.87
2023-03-14T17:28:34.445Z,83.82
2023-03-14T17:31:08.087Z,85.04
2023-03-14T17:33:36.147Z,85.03
2023-03-14T17:36:04.159Z,86.25
2023-03-14T17:38:32.567Z,84.71
2023-03-14T17:41:00.803Z,84.91
2023-03-14T17:43:28.669Z,85.97
2023-03-14T17:46:01.437Z,84.96
2023-03-14T17:48:35.906Z,83.45
2023-03-14T17:51:04.513Z,83.95
2023-03-14T17:53:32.948Z,86.92
2023-03-14T17:56:01.448Z,86.47
2023-03-14T17:58:30.832Z,83.52
2023-03-14T18:01:00.535Z,86.61
2023-03-14T18:03:32.278Z,84.79
2023-03-14T18:06:00.273Z,87.34
2023-03-14T18:08:31.740Z,89.09
2023-03-14T18:10:59.771Z,87.76
2023-03-14T18:13:28.860Z,87.19
2023-03-14T18:15:58.268Z,87.16
2023-03-14T18:18:27.568Z,88.36
2023-03-14T18:20:56.422Z,88.58
2023-03-14T18:23:25.115Z,88.35
2023-03-14T18:25:53.458Z,87.26
2023-03-14T18:28:23.622Z,87.41
2023-03-14T18:30:55.476Z,88.75
2023-03-14T18:33:24.794Z,87.13
2023-03-14T18:35:53.083Z,88.30
2023-03-14T18:38:25.173Z,86.95
2023-03-14T18:40:54.342Z,85.92
2023-03-14T18:43:24.974Z,82.52
2023-03-14T18:45:53.855Z,84.35
2023-03-14T18:48:25.605Z,82.84
2023-03-14T18:50:56.927Z,86.44
2023-03-14T18:53:32.651Z,88.91
2023-03-14T18:56:05.368Z,82.19
2023-03-14T18:58:33.801Z,88.13
2023-03-14T19:01:04.688Z,88.04
2023-03-14T19:03:34.903Z,87.35
2023-03-14T19:06:04.778Z,87.49
2023-03-14T19:08:35.285Z,86.51
2023-03-14T19:11:07.970Z,87.46
2023-03-14T19:13:36.572Z,87.92
2023-03-14T19:16:05.781Z,86.34
2023-03-14T19:18:35.923Z,87.26
2023-03-14T19:21:14.463Z,84.73
2023-03-14T19:23:43.596Z,86.51
2023-03-14T19:26:17.327Z,85.42
2023-03-14T19:28:46.245Z,85.00
2023-03-14T19:31:15.582Z,82.31
2023-03-14T19:33:43.732Z,78.00
2023-03-14T19:36:23.041Z,86.37
2023-03-14T19:38:51.988Z,88.72
2023-03-14T19:41:21.240Z,87.27
2023-03-14T19:43:50.380Z,89.12
2023-03-14T19:46:19.920Z,81.00
2023-03-14T19:48:49.364Z,81.97
2023-03-14T19:51:19.088Z,89.27
2023-03-14T19:53:47.610Z,90.55
2023-03-14T19:56:16.238Z,91.11
2023-03-14T19:58:46.243Z,94.43
2023-03-14T20:01:17.302Z,93.50
2023-03-14T20:03:46.180Z,89.00
2023-03-14T20:06:16.266Z,83.03
2023-03-14T20:08:46.248Z,83.12
2023-03-14T20:11:15.310Z,84.97
2023-03-14T20:13:45.100Z,86.07
2023-03-14T20:16:13.508Z,86.15
2023-03-14T20:18:42.681Z,90.22
2023-03-14T20:21:14.654Z,85.96
2023-03-14T20:23:44.783Z,84.20
2023-03-14T20:26:13.312Z,83.11
2023-03-14T20:28:43.329Z,89.56
2023-03-14T20:31:13.011Z,92.17
2023-03-14T20:33:44.859Z,94.04
2023-03-14T20:36:14.818Z,95.60
2023-03-14T20:38:50.759Z,93.54
2023-03-14T20:41:19.716Z,96.05
2023-03-14T20:43:48.033Z,94.56
2023-03-14T20:46:17.779Z,95.57
2023-03-14T20:48:46.016Z,94.85
2023-03-14T20:51:15.006Z,96.79
2023-03-14T20:53:43.079Z,95.52
2023-03-14T20:56:14.982Z,98.86
2023-03-14T20:58:47.177Z,97.99
2023-03-14T21:04:01.841Z,92.75
2023-03-14T21:06:32.770Z,94.31
2023-03-14T21:09:05.634Z,94.12
2023-03-14T21:11:36.535Z,89.22
2023-03-14T21:14:04.979Z,86.69
2023-03-14T21:16:33.674Z,86.79
2023-03-14T21:19:03.008Z,87.59
2023-03-14T21:21:30.974Z,88.29
2023-03-14T21:23:59.505Z,89.38
2023-03-14T21:26:27.067Z,89.96
2023-03-14T21:28:54.364Z,89.52
2023-03-14T21:31:22.059Z,93.23
2023-03-14T21:33:49.337Z,93.06
2023-03-14T21:36:16.784Z,95.06
2023-03-14T21:38:44.762Z,100.00
2023-03-14T21:41:11.978Z,100.00
2023-03-14T21:43:41.245Z,100.00
2023-03-14T21:46:08.647Z,100.00
2023-03-14T21:48:36.016Z,100.00
2023-03-14T21:51:05.464Z,99.08
2023-03-14T21:53:33.855Z,100.00
2023-03-14T21:56:01.433Z,100.00
2023-03-14T21:58:28.666Z,98.12
2023-03-14T22:01:00.883Z,100.00
2023-03-14T22:03:28.507Z,100.00
2023-03-14T22:05:55.716Z,100.00
2023-03-14T22:08:22.960Z,100.00
2023-03-14T22:10:50.949Z,99.97
2023-03-14T22:13:18.234Z,100.00
2023-03-14T22:15:46.248Z,100.00
2023-03-14T22:18:14.274Z,100.00
2023-03-14T22:20:41.929Z,100.00
2023-03-14T22:23:09.577Z,97.80
2023-03-14T22:25:41.084Z,97.83
2023-03-14T22:28:08.416Z,92.41
2023-03-14T22:30:35.782Z,89.02
2023-03-14T22:33:03.604Z,93.48
2023-03-14T22:35:30.698Z,99.32
2023-03-14T22:37:57.802Z,96.59
2023-03-14T22:40:25.234Z,94.14
2023-03-14T22:42:52.649Z,90.32
2023-03-14T22:45:19.762Z,89.82
2023-03-14T22:47:47.227Z,91.50
2023-03-14T22:50:14.501Z,93.11
2023-03-14T22:52:41.602Z,88.54
2023-03-14T22:55:09.583Z,88.21
2023-03-14T22:57:37.552Z,89.12
2023-03-14T23:00:08.252Z,88.22
2023-03-14T23:02:35.995Z,88.23
2023-03-14T23:05:03.625Z,87.24
2023-03-14T23:07:31.099Z,90.51
2023-03-14T23:09:58.561Z,86.29
2023-03-14T23:12:26.587Z,86.15
2023-03-14T23:14:54.051Z,84.39
2023-03-14T23:17:21.512Z,84.74
2023-03-14T23:19:49.376Z,83.14
2023-03-14T23:22:16.796Z,79.80
2023-03-14T23:24:49.054Z,78.14
2023-03-14T23:27:18.329Z,77.41
2023-03-14T23:29:46.193Z,76.27
2023-03-14T23:32:15.513Z,76.29
2023-03-14T23:34:43.491Z,76.02
2023-03-14T23:37:13.972Z,75.80
2023-03-14T23:39:41.819Z,75.58
2023-03-14T23:42:09.026Z,75.26
2023-03-14T23:44:36.713Z,75.52
2023-03-14T23:47:03.937Z,75.30
2023-03-14T23:49:31.034Z,74.85
2023-03-14T23:51:58.405Z,75.10
2023-03-14T23:54:25.590Z,74.52
2023-03-14T23:56:52.906Z,75.98
2023-03-14T23:59:20.564Z,74.05
